sensor_id;sensor_type;location;lat;lon;timestamp;P1;durP1;ratioP1;P2;durP2;ratioP2
13408;SDS011;6775;49.574;11.170;2024-02-26T00:02:28;5.63;;;3.40;;
13408;SDS011;6775;49.574;11.170;2024-02-26T00:04:57;6.23;;;3.70;;
13408;SDS011;6775;49.574;11.170;2024-02-26T00:07:25;5.83;;;3.80;;
13408;SDS011;6775;49.574;11.170;2024-02-26T00:09:53;3.80;;;3.40;;
13408;SDS011;6775;49.574;11.170;2024-02-26T00:12:22;6.47;;;3.50;;
13408;SDS011;6775;49.574;11.170;2024-02-26T00:14:50;5.07;;;3.10;;
13408;SDS011;6775;49.574;11.170;2024-02-26T00:17:20;4.47;;;3.17;;
13408;SDS011;6775;49.574;11.170;2024-02-26T00:19:48;4.07;;;3.40;;
13408;SDS011;6775;49.574;11.170;2024-02-26T00:22:15;7.23;;;3.30;;
13408;SDS011;6775;49.574;11.170;2024-02-26T00:24:43;6.07;;;3.10;;
13408;SDS011;6775;49.574;11.170;2024-02-26T00:27:12;5.37;;;3.27;;
13408;SDS011;6775;49.574;11.170;2024-02-26T00:29:40;3.83;;;2.87;;
13408;SDS011;6775;49.574;11.170;2024-02-26T00:32:07;5.17;;;3.43;;
13408;SDS011;6775;49.574;11.170;2024-02-26T00:34:37;4.70;;;3.47;;
13408;SDS011;6775;49.574;11.170;2024-02-26T00:37:05;7.40;;;3.57;;
13408;SDS011;6775;49.574;11.170;2024-02-26T00:39:33;6.00;;;4.00;;
13408;SDS011;6775;49.574;11.170;2024-02-26T00:42:01;4.90;;;3.33;;
13408;SDS011;6775;49.574;11.170;2024-02-26T00:44:30;5.33;;;3.83;;
13408;SDS011;6775;49.574;11.170;2024-02-26T00:46:58;5.13;;;3.53;;
13408;SDS011;6775;49.574;11.170;2024-02-26T00:49:26;5.40;;;3.63;;
13408;SDS011;6775;49.574;11.170;2024-02-26T00:51:55;5.70;;;3.60;;
13408;SDS011;6775;49.574;11.170;2024-02-26T00:54:26;5.00;;;3.53;;
13408;SDS011;6775;49.574;11.170;2024-02-26T00:56:54;5.67;;;3.60;;
13408;SDS011;6775;49.574;11.170;2024-02-26T00:59:22;6.33;;;3.90;;
13408;SDS011;6775;49.574;11.170;2024-02-26T01:01:50;4.40;;;2.87;;
13408;SDS011;6775;49.574;11.170;2024-02-26T01:04:18;3.93;;;3.23;;
13408;SDS011;6775;49.574;11.170;2024-02-26T01:06:47;5.43;;;3.70;;
13408;SDS011;6775;49.574;11.170;2024-02-26T01:09:16;5.97;;;3.90;;
13408;SDS011;6775;49.574;11.170;2024-02-26T01:11:45;5.63;;;3.77;;
13408;SDS011;6775;49.574;11.170;2024-02-26T01:14:13;5.37;;;3.63;;
13408;SDS011;6775;49.574;11.170;2024-02-26T01:16:42;7.20;;;3.83;;
13408;SDS011;6775;49.574;11.170;2024-02-26T01:19:10;5.00;;;3.50;;
13408;SDS011;6775;49.574;11.170;2024-02-26T01:21:38;6.57;;;3.93;;
13408;SDS011;6775;49.574;11.170;2024-02-26T01:24:06;5.07;;;3.57;;
13408;SDS011;6775;49.574;11.170;2024-02-26T01:26:36;5.17;;;3.77;;
13408;SDS011;6775;49.574;11.170;2024-02-26T01:29:04;6.57;;;4.30;;
13408;SDS011;6775;49.574;11.170;2024-02-26T01:31:32;7.17;;;4.00;;
13408;SDS011;6775;49.574;11.170;2024-02-26T01:34:00;6.83;;;3.97;;
13408;SDS011;6775;49.574;11.170;2024-02-26T01:36:29;5.40;;;3.77;;
13408;SDS011;6775;49.574;11.170;2024-02-26T01:38:57;4.83;;;3.50;;
13408;SDS011;6775;49.574;11.170;2024-02-26T01:41:25;4.93;;;3.77;;
13408;SDS011;6775;49.574;11.170;2024-02-26T01:43:55;5.63;;;3.80;;
13408;SDS011;6775;49.574;11.170;2024-02-26T01:46:23;6.67;;;4.13;;
13408;SDS011;6775;49.574;11.170;2024-02-26T01:48:51;5.80;;;3.50;;
13408;SDS011;6775;49.574;11.170;2024-02-26T01:51:20;4.90;;;3.47;;
13408;SDS011;6775;49.574;11.170;2024-02-26T01:53:49;7.47;;;3.93;;
13408;SDS011;6775;49.574;11.170;2024-02-26T01:56:18;6.23;;;3.90;;
13408;SDS011;6775;49.574;11.170;2024-02-26T01:58:55;6.50;;;4.03;;
13408;SDS011;6775;49.574;11.170;2024-02-26T02:01:25;7.60;;;3.47;;
13408;SDS011;6775;49.574;11.170;2024-02-26T02:03:56;6.90;;;4.20;;
13408;SDS011;6775;49.574;11.170;2024-02-26T02:06:26;5.13;;;3.70;;
13408;SDS011;6775;49.574;11.170;2024-02-26T02:08:55;5.20;;;3.50;;
13408;SDS011;6775;49.574;11.170;2024-02-26T02:11:24;7.10;;;3.60;;
13408;SDS011;6775;49.574;11.170;2024-02-26T02:13:52;9.23;;;4.23;;
13408;SDS011;6775;49.574;11.170;2024-02-26T02:16:22;7.63;;;4.57;;
13408;SDS011;6775;49.574;11.170;2024-02-26T02:18:50;6.53;;;3.80;;
13408;SDS011;6775;49.574;11.170;2024-02-26T02:21:20;7.07;;;4.70;;
13408;SDS011;6775;49.574;11.170;2024-02-26T02:23:48;7.10;;;4.53;;
13408;SDS011;6775;49.574;11.170;2024-02-26T02:26:16;4.47;;;3.50;;
13408;SDS011;6775;49.574;11.170;2024-02-26T02:28:46;7.23;;;3.90;;
13408;SDS011;6775;49.574;11.170;2024-02-26T02:31:16;5.87;;;3.97;;
13408;SDS011;6775;49.574;11.170;2024-02-26T02:33:44;6.40;;;3.97;;
13408;SDS011;6775;49.574;11.170;2024-02-26T02:36:13;7.10;;;3.67;;
13408;SDS011;6775;49.574;11.170;2024-02-26T02:38:49;6.90;;;3.63;;
13408;SDS011;6775;49.574;11.170;2024-02-26T02:41:18;6.03;;;3.87;;
13408;SDS011;6775;49.574;11.170;2024-02-26T02:43:47;7.20;;;3.93;;
13408;SDS011;6775;49.574;11.170;2024-02-26T02:46:15;4.43;;;3.47;;
13408;SDS011;6775;49.574;11.170;2024-02-26T02:48:43;5.53;;;3.70;;
13408;SDS011;6775;49.574;11.170;2024-02-26T02:51:11;6.47;;;3.80;;
13408;SDS011;6775;49.574;11.170;2024-02-26T02:53:40;8.23;;;3.80;;
13408;SDS011;6775;49.574;11.170;2024-02-26T02:56:09;5.47;;;3.60;;
13408;SDS011;6775;49.574;11.170;2024-02-26T02:58:37;7.30;;;3.90;;
13408;SDS011;6775;49.574;11.170;2024-02-26T03:01:05;5.20;;;3.47;;
13408;SDS011;6775;49.574;11.170;2024-02-26T03:03:34;6.87;;;3.43;;
13408;SDS011;6775;49.574;11.170;2024-02-26T03:06:03;5.77;;;3.87;;
13408;SDS011;6775;49.574;11.170;2024-02-26T03:08:31;5.77;;;3.47;;
13408;SDS011;6775;49.574;11.170;2024-02-26T03:11:03;4.83;;;3.07;;
13408;SDS011;6775;49.574;11.170;2024-02-26T03:13:33;4.10;;;3.37;;
13408;SDS011;6775;49.574;11.170;2024-02-26T03:16:04;4.80;;;3.13;;
13408;SDS011;6775;49.574;11.170;2024-02-26T03:18:33;4.30;;;3.40;;
13408;SDS011;6775;49.574;11.170;2024-02-26T03:21:01;6.20;;;3.40;;
13408;SDS011;6775;49.574;11.170;2024-02-26T03:23:30;6.27;;;3.50;;
13408;SDS011;6775;49.574;11.170;2024-02-26T03:26:02;4.57;;;3.50;;
13408;SDS011;6775;49.574;11.170;2024-02-26T03:28:32;4.20;;;3.33;;
13408;SDS011;6775;49.574;11.170;2024-02-26T03:31:01;6.83;;;3.03;;
13408;SDS011;6775;49.574;11.170;2024-02-26T03:33:29;4.83;;;3.00;;
13408;SDS011;6775;49.574;11.170;2024-02-26T03:35:57;5.37;;;2.70;;
13408;SDS011;6775;49.574;11.170;2024-02-26T03:38:26;3.33;;;2.50;;
13408;SDS011;6775;49.574;11.170;2024-02-26T03:40:54;4.83;;;2.50;;
13408;SDS011;6775;49.574;11.170;2024-02-26T03:43:22;4.40;;;2.70;;
13408;SDS011;6775;49.574;11.170;2024-02-26T03:45:51;3.27;;;2.13;;
13408;SDS011;6775;49.574;11.170;2024-02-26T03:48:20;5.10;;;2.80;;
13408;SDS011;6775;49.574;11.170;2024-02-26T03:50:48;3.20;;;2.30;;
13408;SDS011;6775;49.574;11.170;2024-02-26T03:53:16;3.10;;;2.17;;
13408;SDS011;6775;49.574;11.170;2024-02-26T03:55:44;3.70;;;2.53;;
13408;SDS011;6775;49.574;11.170;2024-02-26T03:58:13;3.03;;;2.53;;
13408;SDS011;6775;49.574;11.170;2024-02-26T04:00:42;4.10;;;3.37;;
13408;SDS011;6775;49.574;11.170;2024-02-26T04:03:11;3.17;;;2.50;;
13408;SDS011;6775;49.574;11.170;2024-02-26T04:05:40;3.90;;;2.70;;
13408;SDS011;6775;49.574;11.170;2024-02-26T04:08:08;3.20;;;2.13;;
13408;SDS011;6775;49.574;11.170;2024-02-26T04:10:37;2.63;;;2.07;;
13408;SDS011;6775;49.574;11.170;2024-02-26T04:13:07;4.17;;;2.40;;
13408;SDS011;6775;49.574;11.170;2024-02-26T04:15:35;3.07;;;2.33;;
13408;SDS011;6775;49.574;11.170;2024-02-26T04:18:04;3.20;;;2.40;;
13408;SDS011;6775;49.574;11.170;2024-02-26T04:20:34;4.30;;;2.60;;
13408;SDS011;6775;49.574;11.170;2024-02-26T04:23:02;2.73;;;2.00;;
13408;SDS011;6775;49.574;11.170;2024-02-26T04:25:31;3.13;;;2.20;;
13408;SDS011;6775;49.574;11.170;2024-02-26T04:27:59;3.23;;;2.30;;
13408;SDS011;6775;49.574;11.170;2024-02-26T04:30:27;3.70;;;2.30;;
13408;SDS011;6775;49.574;11.170;2024-02-26T04:32:55;2.40;;;2.10;;
13408;SDS011;6775;49.574;11.170;2024-02-26T04:35:24;4.20;;;2.50;;
13408;SDS011;6775;49.574;11.170;2024-02-26T04:37:53;2.67;;;2.10;;
13408;SDS011;6775;49.574;11.170;2024-02-26T04:40:21;3.43;;;2.20;;
13408;SDS011;6775;49.574;11.170;2024-02-26T04:42:50;5.03;;;2.37;;
13408;SDS011;6775;49.574;11.170;2024-02-26T04:45:18;3.03;;;1.90;;
13408;SDS011;6775;49.574;11.170;2024-02-26T04:47:46;3.60;;;2.30;;
13408;SDS011;6775;49.574;11.170;2024-02-26T04:50:14;4.03;;;2.20;;
13408;SDS011;6775;49.574;11.170;2024-02-26T04:52:43;2.70;;;2.17;;
13408;SDS011;6775;49.574;11.170;2024-02-26T04:55:12;4.70;;;2.40;;
13408;SDS011;6775;49.574;11.170;2024-02-26T04:57:40;4.77;;;2.43;;
13408;SDS011;6775;49.574;11.170;2024-02-26T05:00:09;6.27;;;2.43;;
13408;SDS011;6775;49.574;11.170;2024-02-26T05:02:39;3.00;;;2.17;;
13408;SDS011;6775;49.574;11.170;2024-02-26T05:05:08;2.27;;;1.97;;
13408;SDS011;6775;49.574;11.170;2024-02-26T05:07:39;3.40;;;2.50;;
13408;SDS011;6775;49.574;11.170;2024-02-26T05:10:08;3.67;;;2.20;;
13408;SDS011;6775;49.574;11.170;2024-02-26T05:12:38;2.83;;;1.90;;
13408;SDS011;6775;49.574;11.170;2024-02-26T05:15:09;2.33;;;2.10;;
13408;SDS011;6775;49.574;11.170;2024-02-26T05:17:37;3.30;;;1.97;;
13408;SDS011;6775;49.574;11.170;2024-02-26T05:20:06;2.20;;;1.93;;
13408;SDS011;6775;49.574;11.170;2024-02-26T05:22:35;3.67;;;2.07;;
13408;SDS011;6775;49.574;11.170;2024-02-26T05:25:04;3.33;;;2.07;;
13408;SDS011;6775;49.574;11.170;2024-02-26T05:27:32;3.23;;;2.23;;
13408;SDS011;6775;49.574;11.170;2024-02-26T05:30:02;4.93;;;2.50;;
13408;SDS011;6775;49.574;11.170;2024-02-26T05:32:31;3.00;;;2.20;;
13408;SDS011;6775;49.574;11.170;2024-02-26T05:34:59;4.03;;;2.40;;
13408;SDS011;6775;49.574;11.170;2024-02-26T05:37:29;4.77;;;2.50;;
13408;SDS011;6775;49.574;11.170;2024-02-26T05:39:58;2.87;;;2.10;;
13408;SDS011;6775;49.574;11.170;2024-02-26T05:42:27;2.73;;;2.17;;
13408;SDS011;6775;49.574;11.170;2024-02-26T05:44:55;3.43;;;2.40;;
13408;SDS011;6775;49.574;11.170;2024-02-26T05:47:25;3.50;;;2.50;;
13408;SDS011;6775;49.574;11.170;2024-02-26T05:49:53;3.27;;;2.13;;
13408;SDS011;6775;49.574;11.170;2024-02-26T05:52:24;2.83;;;2.13;;
13408;SDS011;6775;49.574;11.170;2024-02-26T05:54:52;2.30;;;2.10;;
13408;SDS011;6775;49.574;11.170;2024-02-26T05:57:21;3.20;;;2.07;;
13408;SDS011;6775;49.574;11.170;2024-02-26T05:59:49;2.90;;;2.27;;
13408;SDS011;6775;49.574;11.170;2024-02-26T06:02:17;4.50;;;2.17;;
13408;SDS011;6775;49.574;11.170;2024-02-26T06:04:47;3.60;;;2.37;;
13408;SDS011;6775;49.574;11.170;2024-02-26T06:07:15;3.17;;;2.43;;
13408;SDS011;6775;49.574;11.170;2024-02-26T06:09:43;3.43;;;2.50;;
13408;SDS011;6775;49.574;11.170;2024-02-26T06:12:11;3.30;;;2.40;;
13408;SDS011;6775;49.574;11.170;2024-02-26T06:14:39;5.03;;;2.70;;
13408;SDS011;6775;49.574;11.170;2024-02-26T06:17:08;4.47;;;2.63;;
13408;SDS011;6775;49.574;11.170;2024-02-26T06:19:37;2.57;;;2.23;;
13408;SDS011;6775;49.574;11.170;2024-02-26T06:22:06;3.13;;;2.27;;
13408;SDS011;6775;49.574;11.170;2024-02-26T06:24:34;3.67;;;2.40;;
13408;SDS011;6775;49.574;11.170;2024-02-26T06:27:03;2.87;;;2.23;;
13408;SDS011;6775;49.574;11.170;2024-02-26T06:29:31;3.73;;;2.60;;
13408;SDS011;6775;49.574;11.170;2024-02-26T06:31:59;2.47;;;2.03;;
13408;SDS011;6775;49.574;11.170;2024-02-26T06:34:27;5.67;;;2.53;;
13408;SDS011;6775;49.574;11.170;2024-02-26T06:36:56;4.30;;;2.77;;
13408;SDS011;6775;49.574;11.170;2024-02-26T06:39:25;4.10;;;3.00;;
13408;SDS011;6775;49.574;11.170;2024-02-26T06:41:53;4.20;;;2.50;;
13408;SDS011;6775;49.574;11.170;2024-02-26T06:44:27;4.40;;;2.57;;
13408;SDS011;6775;49.574;11.170;2024-02-26T06:46:58;8.63;;;2.77;;
13408;SDS011;6775;49.574;11.170;2024-02-26T06:49:26;5.03;;;2.60;;
13408;SDS011;6775;49.574;11.170;2024-02-26T06:51:55;2.60;;;2.13;;
13408;SDS011;6775;49.574;11.170;2024-02-26T06:54:23;5.10;;;3.00;;
13408;SDS011;6775;49.574;11.170;2024-02-26T06:56:53;2.90;;;2.53;;
13408;SDS011;6775;49.574;11.170;2024-02-26T06:59:22;4.23;;;2.77;;
13408;SDS011;6775;49.574;11.170;2024-02-26T07:01:51;5.67;;;2.77;;
13408;SDS011;6775;49.574;11.170;2024-02-26T07:04:21;4.20;;;3.20;;
13408;SDS011;6775;49.574;11.170;2024-02-26T07:06:49;3.50;;;2.67;;
13408;SDS011;6775;49.574;11.170;2024-02-26T07:09:17;4.80;;;2.80;;
13408;SDS011;6775;49.574;11.170;2024-02-26T07:11:47;4.00;;;2.87;;
13408;SDS011;6775;49.574;11.170;2024-02-26T07:14:15;3.07;;;2.43;;
13408;SDS011;6775;49.574;11.170;2024-02-26T07:16:43;4.73;;;2.90;;
13408;SDS011;6775;49.574;11.170;2024-02-26T07:19:12;3.67;;;2.67;;
13408;SDS011;6775;49.574;11.170;2024-02-26T07:21:40;4.70;;;3.17;;
13408;SDS011;6775;49.574;11.170;2024-02-26T07:24:08;4.17;;;2.67;;
13408;SDS011;6775;49.574;11.170;2024-02-26T07:26:37;3.50;;;2.53;;
13408;SDS011;6775;49.574;11.170;2024-02-26T07:29:06;4.20;;;2.80;;
13408;SDS011;6775;49.574;11.170;2024-02-26T07:31:34;4.03;;;3.00;;
13408;SDS011;6775;49.574;11.170;2024-02-26T07:34:02;3.13;;;2.60;;
13408;SDS011;6775;49.574;11.170;2024-02-26T07:36:31;3.03;;;2.63;;
13408;SDS011;6775;49.574;11.170;2024-02-26T07:38:59;4.47;;;2.90;;
13408;SDS011;6775;49.574;11.170;2024-02-26T07:41:27;3.80;;;2.90;;
13408;SDS011;6775;49.574;11.170;2024-02-26T07:43:56;4.53;;;2.80;;
13408;SDS011;6775;49.574;11.170;2024-02-26T07:46:25;3.00;;;2.37;;
13408;SDS011;6775;49.574;11.170;2024-02-26T07:48:53;3.90;;;2.80;;
13408;SDS011;6775;49.574;11.170;2024-02-26T07:51:22;3.93;;;2.97;;
13408;SDS011;6775;49.574;11.170;2024-02-26T07:53:50;4.10;;;2.77;;
13408;SDS011;6775;49.574;11.170;2024-02-26T07:56:19;3.67;;;2.80;;
13408;SDS011;6775;49.574;11.170;2024-02-26T07:58:47;3.23;;;2.60;;
13408;SDS011;6775;49.574;11.170;2024-02-26T08:01:15;3.00;;;2.70;;
13408;SDS011;6775;49.574;11.170;2024-02-26T08:03:45;3.37;;;2.60;;
13408;SDS011;6775;49.574;11.170;2024-02-26T08:06:13;4.13;;;2.53;;
13408;SDS011;6775;49.574;11.170;2024-02-26T08:08:41;6.07;;;3.20;;
13408;SDS011;6775;49.574;11.170;2024-02-26T08:11:10;3.60;;;2.60;;
13408;SDS011;6775;49.574;11.170;2024-02-26T08:13:38;3.80;;;3.00;;
13408;SDS011;6775;49.574;11.170;2024-02-26T08:16:06;5.10;;;3.10;;
13408;SDS011;6775;49.574;11.170;2024-02-26T08:18:34;3.20;;;2.90;;
13408;SDS011;6775;49.574;11.170;2024-02-26T08:21:04;3.67;;;2.80;;
13408;SDS011;6775;49.574;11.170;2024-02-26T08:23:32;4.97;;;3.27;;
13408;SDS011;6775;49.574;11.170;2024-02-26T08:26:01;3.77;;;2.73;;
13408;SDS011;6775;49.574;11.170;2024-02-26T08:28:30;4.43;;;2.83;;
13408;SDS011;6775;49.574;11.170;2024-02-26T08:30:58;3.60;;;3.00;;
13408;SDS011;6775;49.574;11.170;2024-02-26T08:33:26;4.83;;;3.07;;
13408;SDS011;6775;49.574;11.170;2024-02-26T08:35:55;4.37;;;3.10;;
13408;SDS011;6775;49.574;11.170;2024-02-26T08:38:26;4.67;;;3.40;;
13408;SDS011;6775;49.574;11.170;2024-02-26T08:40:54;3.80;;;3.00;;
13408;SDS011;6775;49.574;11.170;2024-02-26T08:43:22;5.20;;;3.13;;
13408;SDS011;6775;49.574;11.170;2024-02-26T08:45:50;5.57;;;3.00;;
13408;SDS011;6775;49.574;11.170;2024-02-26T08:48:18;4.30;;;2.93;;
13408;SDS011;6775;49.574;11.170;2024-02-26T08:50:46;4.63;;;3.30;;
13408;SDS011;6775;49.574;11.170;2024-02-26T08:53:15;3.63;;;2.63;;
13408;SDS011;6775;49.574;11.170;2024-02-26T08:55:54;4.60;;;3.10;;
13408;SDS011;6775;49.574;11.170;2024-02-26T08:58:22;4.20;;;2.80;;
13408;SDS011;6775;49.574;11.170;2024-02-26T09:00:50;4.20;;;3.10;;
13408;SDS011;6775;49.574;11.170;2024-02-26T09:03:19;3.40;;;3.10;;
13408;SDS011;6775;49.574;11.170;2024-02-26T09:05:47;4.47;;;3.17;;
13408;SDS011;6775;49.574;11.170;2024-02-26T09:08:16;3.67;;;3.20;;
13408;SDS011;6775;49.574;11.170;2024-02-26T09:10:44;3.63;;;2.70;;
13408;SDS011;6775;49.574;11.170;2024-02-26T09:13:13;3.77;;;3.30;;
13408;SDS011;6775;49.574;11.170;2024-02-26T09:15:41;3.87;;;3.07;;
13408;SDS011;6775;49.574;11.170;2024-02-26T09:18:10;5.47;;;3.13;;
13408;SDS011;6775;49.574;11.170;2024-02-26T09:20:38;5.17;;;3.50;;
13408;SDS011;6775;49.574;11.170;2024-02-26T09:23:07;3.90;;;3.03;;
13408;SDS011;6775;49.574;11.170;2024-02-26T09:25:35;5.20;;;3.10;;
13408;SDS011;6775;49.574;11.170;2024-02-26T09:28:03;4.40;;;3.20;;
13408;SDS011;6775;49.574;11.170;2024-02-26T09:30:33;4.00;;;3.03;;
13408;SDS011;6775;49.574;11.170;2024-02-26T09:33:01;3.87;;;2.60;;
13408;SDS011;6775;49.574;11.170;2024-02-26T09:35:30;3.73;;;2.87;;
13408;SDS011;6775;49.574;11.170;2024-02-26T09:37:58;4.53;;;3.00;;
13408;SDS011;6775;49.574;11.170;2024-02-26T09:40:26;4.37;;;2.90;;
13408;SDS011;6775;49.574;11.170;2024-02-26T09:42:56;4.50;;;3.20;;
13408;SDS011;6775;49.574;11.170;2024-02-26T09:45:28;3.57;;;2.80;;
13408;SDS011;6775;49.574;11.170;2024-02-26T09:48:01;4.70;;;3.07;;
13408;SDS011;6775;49.574;11.170;2024-02-26T09:50:33;4.60;;;2.90;;
13408;SDS011;6775;49.574;11.170;2024-02-26T09:53:01;4.73;;;3.10;;
13408;SDS011;6775;49.574;11.170;2024-02-26T09:55:33;3.67;;;2.90;;
13408;SDS011;6775;49.574;11.170;2024-02-26T09:58:01;3.63;;;2.30;;
13408;SDS011;6775;49.574;11.170;2024-02-26T10:00:33;4.30;;;2.87;;
13408;SDS011;6775;49.574;11.170;2024-02-26T10:03:09;3.67;;;2.67;;
13408;SDS011;6775;49.574;11.170;2024-02-26T10:05:42;3.73;;;2.70;;
13408;SDS011;6775;49.574;11.170;2024-02-26T10:08:12;3.47;;;2.80;;
13408;SDS011;6775;49.574;11.170;2024-02-26T10:10:44;5.37;;;2.90;;
13408;SDS011;6775;49.574;11.170;2024-02-26T10:13:12;5.10;;;2.40;;
13408;SDS011;6775;49.574;11.170;2024-02-26T10:15:41;3.10;;;2.43;;
13408;SDS011;6775;49.574;11.170;2024-02-26T10:18:10;4.63;;;2.60;;
13408;SDS011;6775;49.574;11.170;2024-02-26T10:20:39;2.60;;;2.40;;
13408;SDS011;6775;49.574;11.170;2024-02-26T10:23:07;3.93;;;2.83;;
13408;SDS011;6775;49.574;11.170;2024-02-26T10:25:35;2.80;;;2.30;;
13408;SDS011;6775;49.574;11.170;2024-02-26T10:28:03;3.37;;;2.57;;
13408;SDS011;6775;49.574;11.170;2024-02-26T10:30:36;3.83;;;2.50;;
13408;SDS011;6775;49.574;11.170;2024-02-26T10:33:05;2.70;;;1.90;;
13408;SDS011;6775;49.574;11.170;2024-02-26T10:35:36;3.87;;;2.50;;
13408;SDS011;6775;49.574;11.170;2024-02-26T10:38:06;3.53;;;2.53;;
13408;SDS011;6775;49.574;11.170;2024-02-26T10:40:35;2.90;;;2.47;;
13408;SDS011;6775;49.574;11.170;2024-02-26T10:43:03;2.97;;;2.20;;
13408;SDS011;6775;49.574;11.170;2024-02-26T10:45:32;2.73;;;2.13;;
13408;SDS011;6775;49.574;11.170;2024-02-26T10:48:04;4.03;;;2.77;;
13408;SDS011;6775;49.574;11.170;2024-02-26T10:50:38;3.53;;;2.33;;
13408;SDS011;6775;49.574;11.170;2024-02-26T10:53:13;2.07;;;1.87;;
13408;SDS011;6775;49.574;11.170;2024-02-26T10:55:48;2.70;;;2.30;;
13408;SDS011;6775;49.574;11.170;2024-02-26T10:58:21;3.17;;;2.30;;
13408;SDS011;6775;49.574;11.170;2024-02-26T11:00:51;3.53;;;2.60;;
13408;SDS011;6775;49.574;11.170;2024-02-26T11:03:21;4.10;;;2.27;;
13408;SDS011;6775;49.574;11.170;2024-02-26T11:05:53;4.17;;;2.50;;
13408;SDS011;6775;49.574;11.170;2024-02-26T11:08:24;2.77;;;2.33;;
13408;SDS011;6775;49.574;11.170;2024-02-26T11:10:54;3.20;;;2.63;;
13408;SDS011;6775;49.574;11.170;2024-02-26T11:13:26;2.33;;;2.10;;
13408;SDS011;6775;49.574;11.170;2024-02-26T11:16:01;2.60;;;2.40;;
13408;SDS011;6775;49.574;11.170;2024-02-26T11:18:30;2.23;;;2.03;;
13408;SDS011;6775;49.574;11.170;2024-02-26T11:21:03;3.00;;;2.20;;
13408;SDS011;6775;49.574;11.170;2024-02-26T11:23:34;3.00;;;2.43;;
13408;SDS011;6775;49.574;11.170;2024-02-26T11:26:03;3.07;;;2.47;;
13408;SDS011;6775;49.574;11.170;2024-02-26T11:28:34;3.50;;;2.53;;
13408;SDS011;6775;49.574;11.170;2024-02-26T11:31:04;2.63;;;2.43;;
13408;SDS011;6775;49.574;11.170;2024-02-26T11:33:33;3.37;;;2.40;;
13408;SDS011;6775;49.574;11.170;2024-02-26T11:36:08;3.13;;;2.47;;
13408;SDS011;6775;49.574;11.170;2024-02-26T11:38:38;2.40;;;2.20;;
13408;SDS011;6775;49.574;11.170;2024-02-26T11:41:07;2.60;;;2.40;;
13408;SDS011;6775;49.574;11.170;2024-02-26T11:43:51;2.73;;;2.50;;
13408;SDS011;6775;49.574;11.170;2024-02-26T11:46:24;2.83;;;2.20;;
13408;SDS011;6775;49.574;11.170;2024-02-26T11:48:55;2.70;;;2.40;;
13408;SDS011;6775;49.574;11.170;2024-02-26T11:51:27;2.90;;;2.40;;
13408;SDS011;6775;49.574;11.170;2024-02-26T11:54:00;2.07;;;1.73;;
13408;SDS011;6775;49.574;11.170;2024-02-26T11:56:28;2.50;;;1.87;;
13408;SDS011;6775;49.574;11.170;2024-02-26T11:58:59;2.37;;;2.17;;
13408;SDS011;6775;49.574;11.170;2024-02-26T12:01:40;2.17;;;1.97;;
13408;SDS011;6775;49.574;11.170;2024-02-26T12:04:19;2.47;;;1.97;;
13408;SDS011;6775;49.574;11.170;2024-02-26T12:06:54;2.50;;;2.10;;
13408;SDS011;6775;49.574;11.170;2024-02-26T12:09:33;2.67;;;2.00;;
13408;SDS011;6775;49.574;11.170;2024-02-26T12:12:04;2.80;;;1.97;;
13408;SDS011;6775;49.574;11.170;2024-02-26T12:14:37;2.07;;;1.87;;
13408;SDS011;6775;49.574;11.170;2024-02-26T12:17:07;2.53;;;2.00;;
13408;SDS011;6775;49.574;11.170;2024-02-26T12:19:46;2.70;;;1.97;;
13408;SDS011;6775;49.574;11.170;2024-02-26T12:22:16;2.37;;;2.03;;
13408;SDS011;6775;49.574;11.170;2024-02-26T12:24:44;2.43;;;1.73;;
13408;SDS011;6775;49.574;11.170;2024-02-26T12:27:13;2.10;;;1.90;;
13408;SDS011;6775;49.574;11.170;2024-02-26T12:29:42;1.97;;;1.77;;
13408;SDS011;6775;49.574;11.170;2024-02-26T12:32:10;2.07;;;1.70;;
13408;SDS011;6775;49.574;11.170;2024-02-26T12:34:40;2.40;;;1.93;;
13408;SDS011;6775;49.574;11.170;2024-02-26T12:37:08;2.00;;;1.80;;
13408;SDS011;6775;49.574;11.170;2024-02-26T12:39:38;1.70;;;1.47;;
13408;SDS011;6775;49.574;11.170;2024-02-26T12:42:06;2.27;;;1.53;;
13408;SDS011;6775;49.574;11.170;2024-02-26T12:44:35;1.60;;;1.50;;
13408;SDS011;6775;49.574;11.170;2024-02-26T12:47:04;1.63;;;1.47;;
13408;SDS011;6775;49.574;11.170;2024-02-26T12:49:33;2.10;;;1.70;;
13408;SDS011;6775;49.574;11.170;2024-02-26T12:52:02;2.20;;;1.50;;
13408;SDS011;6775;49.574;11.170;2024-02-26T12:54:31;1.30;;;1.20;;
13408;SDS011;6775;49.574;11.170;2024-02-26T12:57:02;2.00;;;1.50;;
13408;SDS011;6775;49.574;11.170;2024-02-26T12:59:33;1.50;;;1.40;;
13408;SDS011;6775;49.574;11.170;2024-02-26T13:02:04;3.03;;;1.80;;
13408;SDS011;6775;49.574;11.170;2024-02-26T13:04:34;1.50;;;1.40;;
13408;SDS011;6775;49.574;11.170;2024-02-26T13:07:03;2.03;;;1.40;;
13408;SDS011;6775;49.574;11.170;2024-02-26T13:09:32;1.93;;;1.40;;
13408;SDS011;6775;49.574;11.170;2024-02-26T13:12:05;2.33;;;1.70;;
13408;SDS011;6775;49.574;11.170;2024-02-26T13:14:35;1.43;;;1.33;;
13408;SDS011;6775;49.574;11.170;2024-02-26T13:17:03;1.67;;;1.50;;
13408;SDS011;6775;49.574;11.170;2024-02-26T13:19:31;1.77;;;1.57;;
13408;SDS011;6775;49.574;11.170;2024-02-26T13:22:03;1.70;;;1.60;;
13408;SDS011;6775;49.574;11.170;2024-02-26T13:24:32;1.83;;;1.73;;
13408;SDS011;6775;49.574;11.170;2024-02-26T13:27:01;1.87;;;1.60;;
13408;SDS011;6775;49.574;11.170;2024-02-26T13:29:34;2.43;;;1.57;;
13408;SDS011;6775;49.574;11.170;2024-02-26T13:32:02;1.43;;;1.33;;
13408;SDS011;6775;49.574;11.170;2024-02-26T13:34:32;1.30;;;1.20;;
13408;SDS011;6775;49.574;11.170;2024-02-26T13:37:01;1.70;;;1.30;;
13408;SDS011;6775;49.574;11.170;2024-02-26T13:39:31;2.10;;;1.20;;
13408;SDS011;6775;49.574;11.170;2024-02-26T13:42:02;1.73;;;1.33;;
13408;SDS011;6775;49.574;11.170;2024-02-26T13:44:31;2.87;;;1.40;;
13408;SDS011;6775;49.574;11.170;2024-02-26T13:47:04;1.30;;;1.20;;
13408;SDS011;6775;49.574;11.170;2024-02-26T13:49:32;1.50;;;1.17;;
13408;SDS011;6775;49.574;11.170;2024-02-26T13:52:00;1.37;;;1.20;;
13408;SDS011;6775;49.574;11.170;2024-02-26T13:54:28;1.60;;;1.20;;
13408;SDS011;6775;49.574;11.170;2024-02-26T13:56:57;3.43;;;1.30;;
13408;SDS011;6775;49.574;11.170;2024-02-26T13:59:25;1.33;;;1.23;;
13408;SDS011;6775;49.574;11.170;2024-02-26T14:01:55;1.40;;;1.30;;
13408;SDS011;6775;49.574;11.170;2024-02-26T14:04:24;1.67;;;1.40;;
13408;SDS011;6775;49.574;11.170;2024-02-26T14:06:53;1.67;;;1.40;;
13408;SDS011;6775;49.574;11.170;2024-02-26T14:09:21;2.23;;;1.40;;
13408;SDS011;6775;49.574;11.170;2024-02-26T14:12:01;1.43;;;1.33;;
13408;SDS011;6775;49.574;11.170;2024-02-26T14:14:29;2.37;;;1.50;;
13408;SDS011;6775;49.574;11.170;2024-02-26T14:17:01;1.70;;;1.30;;
13408;SDS011;6775;49.574;11.170;2024-02-26T14:19:31;3.00;;;1.23;;
13408;SDS011;6775;49.574;11.170;2024-02-26T14:21:59;1.50;;;1.30;;
13408;SDS011;6775;49.574;11.170;2024-02-26T14:24:27;3.90;;;1.30;;
13408;SDS011;6775;49.574;11.170;2024-02-26T14:26:56;1.80;;;1.60;;
13408;SDS011;6775;49.574;11.170;2024-02-26T14:29:24;1.73;;;1.57;;
13408;SDS011;6775;49.574;11.170;2024-02-26T14:31:52;2.80;;;1.80;;
13408;SDS011;6775;49.574;11.170;2024-02-26T14:34:22;1.50;;;1.40;;
13408;SDS011;6775;49.574;11.170;2024-02-26T14:36:52;2.00;;;1.40;;
13408;SDS011;6775;49.574;11.170;2024-02-26T14:39:20;2.07;;;1.43;;
13408;SDS011;6775;49.574;11.170;2024-02-26T14:41:49;2.37;;;1.70;;
13408;SDS011;6775;49.574;11.170;2024-02-26T14:44:21;1.73;;;1.63;;
13408;SDS011;6775;49.574;11.170;2024-02-26T14:46:50;2.27;;;1.97;;
13408;SDS011;6775;49.574;11.170;2024-02-26T14:49:19;1.67;;;1.57;;
13408;SDS011;6775;49.574;11.170;2024-02-26T14:51:46;2.30;;;1.90;;
13408;SDS011;6775;49.574;11.170;2024-02-26T14:54:16;3.23;;;1.90;;
13408;SDS011;6775;49.574;11.170;2024-02-26T14:56:44;1.60;;;1.43;;
13408;SDS011;6775;49.574;11.170;2024-02-26T14:59:14;2.00;;;1.30;;
13408;SDS011;6775;49.574;11.170;2024-02-26T15:01:42;1.60;;;1.40;;